createdAt,value
2018-08-17T00:01:39.215Z,21.80
2018-08-17T00:04:07.382Z,21.80
2018-08-17T00:06:35.634Z,21.90
2018-08-17T00:09:04.908Z,21.80
2018-08-17T00:11:32.687Z,21.80
2018-08-17T00:14:02.061Z,21.80
2018-08-17T00:16:30.947Z,21.60
2018-08-17T00:18:58.659Z,21.70
2018-08-17T00:21:26.525Z,21.70
2018-08-17T00:23:54.467Z,21.70
2018-08-17T00:26:22.206Z,21.70
2018-08-17T00:28:50.325Z,21.70
2018-08-17T00:31:18.439Z,21.60
2018-08-17T00:33:45.884Z,21.60
2018-08-17T00:36:13.465Z,21.70
2018-08-17T00:38:41.041Z,21.70
2018-08-17T00:41:08.466Z,21.50
2018-08-17T00:43:35.900Z,21.50
2018-08-17T00:46:03.428Z,21.60
2018-08-17T00:48:30.940Z,21.60
2018-08-17T00:50:59.463Z,21.50
2018-08-17T00:53:26.912Z,21.60
2018-08-17T00:55:54.411Z,21.50
2018-08-17T00:58:21.955Z,21.50
2018-08-17T01:00:49.444Z,21.50
2018-08-17T01:03:16.885Z,21.50
2018-08-17T01:05:44.460Z,21.40
2018-08-17T01:08:11.939Z,21.40
2018-08-17T01:10:39.371Z,21.40
2018-08-17T01:13:11.424Z,21.40
2018-08-17T01:15:38.887Z,21.40
2018-08-17T01:18:06.383Z,21.30
2018-08-17T01:20:33.876Z,21.30
2018-08-17T01:23:01.336Z,21.40
2018-08-17T01:25:28.803Z,21.30
2018-08-17T01:27:56.255Z,21.40
2018-08-17T01:30:23.897Z,21.30
2018-08-17T01:32:51.450Z,21.20
2018-08-17T01:35:19.024Z,21.10
2018-08-17T01:37:46.510Z,21.10
2018-08-17T01:40:13.934Z,21.00
2018-08-17T01:42:41.384Z,21.20
2018-08-17T01:45:08.864Z,21.10
2018-08-17T01:47:36.331Z,21.10
2018-08-17T01:50:04.793Z,21.20
2018-08-17T01:52:32.377Z,21.10
2018-08-17T01:54:59.803Z,21.00
2018-08-17T01:57:27.257Z,21.10
2018-08-17T01:59:54.743Z,21.00
2018-08-17T02:02:22.209Z,21.00
2018-08-17T02:04:49.639Z,21.00
2018-08-17T02:07:17.703Z,20.90
2018-08-17T02:09:45.621Z,20.90
2018-08-17T02:12:13.613Z,20.90
2018-08-17T02:14:41.644Z,20.90
2018-08-17T02:17:09.633Z,20.80
2018-08-17T02:19:37.611Z,21.00
2018-08-17T02:22:05.079Z,20.90
2018-08-17T02:24:32.661Z,20.90
2018-08-17T02:27:00.031Z,20.90
2018-08-17T02:29:27.456Z,20.90
2018-08-17T02:31:54.880Z,20.80
2018-08-17T02:34:22.315Z,20.90
2018-08-17T02:36:49.759Z,20.80
2018-08-17T02:39:17.228Z,20.80
2018-08-17T02:41:44.683Z,20.80
2018-08-17T02:44:12.160Z,20.90
2018-08-17T02:46:39.610Z,20.80
2018-08-17T02:49:07.055Z,20.90
2018-08-17T02:51:34.534Z,20.90
2018-08-17T02:54:01.967Z,20.70
2018-08-17T02:56:29.559Z,20.80
2018-08-17T02:58:57.024Z,20.70
2018-08-17T03:01:24.463Z,20.70
2018-08-17T03:03:51.890Z,20.60
2018-08-17T03:06:19.395Z,20.60
2018-08-17T03:08:46.836Z,20.70
2018-08-17T03:11:14.344Z,20.60
2018-08-17T03:13:41.775Z,20.60
2018-08-17T03:16:09.428Z,20.60
2018-08-17T03:18:36.892Z,20.60
2018-08-17T03:21:04.429Z,20.60
2018-08-17T03:23:31.987Z,20.60
2018-08-17T03:25:59.498Z,20.50
2018-08-17T03:28:27.568Z,20.60
2018-08-17T03:30:55.016Z,20.50
2018-08-17T03:33:22.482Z,20.50
2018-08-17T03:35:49.956Z,20.40
2018-08-17T03:38:17.428Z,20.40
2018-08-17T03:40:45.003Z,20.40
2018-08-17T03:43:12.471Z,20.30
2018-08-17T03:45:39.943Z,20.20
2018-08-17T03:48:07.793Z,20.10
2018-08-17T03:50:35.250Z,20.00
2018-08-17T03:53:02.723Z,20.20
2018-08-17T03:55:30.442Z,20.10
2018-08-17T03:57:57.883Z,20.20
2018-08-17T04:00:25.343Z,20.20
2018-08-17T04:02:52.798Z,20.10
2018-08-17T04:05:20.293Z,20.20
2018-08-17T04:07:48.907Z,20.10
2018-08-17T04:10:16.391Z,19.90
2018-08-17T04:12:43.839Z,19.90
2018-08-17T04:15:11.324Z,20.10
2018-08-17T04:17:39.156Z,20.10
2018-08-17T04:20:06.872Z,20.10
2018-08-17T04:22:34.316Z,20.10
2018-08-17T04:25:01.904Z,20.00
2018-08-17T04:27:29.441Z,20.10
2018-08-17T04:29:57.504Z,20.10
2018-08-17T04:32:25.074Z,20.20
2018-08-17T04:34:52.577Z,20.00
2018-08-17T04:37:20.007Z,20.10
2018-08-17T04:39:47.546Z,20.10
2018-08-17T04:42:23.811Z,20.10
2018-08-17T04:44:51.391Z,20.10
2018-08-17T04:47:26.134Z,20.10
2018-08-17T04:49:55.151Z,20.10
2018-08-17T04:52:22.595Z,20.10
2018-08-17T04:54:50.063Z,19.90
2018-08-17T04:57:17.566Z,20.00
2018-08-17T04:59:45.030Z,19.90
2018-08-17T05:02:12.609Z,19.90
2018-08-17T05:04:40.172Z,19.90
2018-08-17T05:07:08.652Z,19.90
2018-08-17T05:09:36.084Z,19.90
2018-08-17T05:12:03.556Z,19.80
2018-08-17T05:14:31.156Z,19.90
2018-08-17T05:16:58.618Z,19.80
2018-08-17T05:19:26.180Z,19.80
2018-08-17T05:21:53.649Z,19.80
2018-08-17T05:24:21.230Z,19.90
2018-08-17T05:26:48.663Z,19.80
2018-08-17T05:29:16.111Z,19.80
2018-08-17T05:31:43.693Z,19.90
2018-08-17T05:34:11.351Z,19.80
2018-08-17T05:36:39.868Z,20.00
2018-08-17T05:39:08.131Z,19.80
2018-08-17T05:41:35.611Z,19.90
2018-08-17T05:44:03.135Z,20.00
2018-08-17T05:46:30.557Z,20.10
2018-08-17T05:48:58.034Z,20.00
2018-08-17T05:51:25.452Z,20.10
2018-08-17T05:53:52.895Z,20.20
2018-08-17T05:56:20.709Z,20.20
2018-08-17T05:58:48.780Z,20.20
2018-08-17T06:01:17.113Z,20.20
2018-08-17T06:03:45.986Z,20.30
2018-08-17T06:06:16.790Z,20.30
2018-08-17T06:08:44.244Z,20.30
2018-08-17T06:11:11.865Z,20.30
2018-08-17T06:13:39.258Z,20.40
2018-08-17T06:16:07.153Z,20.40
2018-08-17T06:18:37.015Z,20.40
2018-08-17T06:21:04.525Z,20.50
2018-08-17T06:23:32.016Z,20.60
2018-08-17T06:25:59.525Z,20.60
2018-08-17T06:28:27.703Z,20.70
2018-08-17T06:30:55.210Z,20.70
2018-08-17T06:33:22.668Z,20.70
2018-08-17T06:35:50.289Z,20.90
2018-08-17T06:38:17.795Z,20.90
2018-08-17T06:40:45.412Z,21.00
2018-08-17T06:43:14.433Z,21.00
2018-08-17T06:45:43.667Z,21.10
2018-08-17T06:48:11.370Z,21.10
2018-08-17T06:50:39.082Z,21.20
2018-08-17T06:53:07.356Z,21.20
2018-08-17T06:55:36.079Z,21.40
2018-08-17T06:58:03.636Z,21.40
2018-08-17T07:00:31.160Z,21.50
2018-08-17T07:02:58.881Z,21.60
2018-08-17T07:05:26.343Z,21.60
2018-08-17T07:07:53.809Z,21.70
2018-08-17T07:10:21.348Z,21.60
2018-08-17T07:15:16.793Z,21.90
2018-08-17T07:17:45.501Z,22.10
2018-08-17T07:20:13.761Z,22.20
2018-08-17T07:22:42.116Z,22.30
2018-08-17T07:25:10.169Z,22.40
2018-08-17T07:27:38.733Z,22.50
2018-08-17T07:30:08.157Z,22.80
2018-08-17T07:32:36.204Z,22.80
2018-08-17T07:35:05.033Z,22.90
2018-08-17T07:37:32.888Z,22.90
2018-08-17T07:40:00.488Z,23.00
2018-08-17T07:42:27.979Z,23.00
2018-08-17T07:44:55.380Z,23.10
2018-08-17T07:47:22.896Z,23.20
2018-08-17T07:49:50.379Z,23.40
2018-08-17T07:52:18.078Z,23.50
2018-08-17T07:54:45.590Z,23.30
2018-08-17T07:57:13.075Z,23.60
2018-08-17T07:59:40.712Z,23.70
2018-08-17T08:02:08.215Z,23.70
2018-08-17T08:04:35.831Z,23.80
2018-08-17T08:07:03.347Z,24.00
2018-08-17T08:09:30.840Z,24.00
2018-08-17T08:11:58.441Z,24.20
2018-08-17T08:14:25.862Z,24.40
2018-08-17T08:16:53.303Z,24.50
2018-08-17T08:19:20.832Z,24.50
2018-08-17T08:21:49.388Z,24.60
2018-08-17T08:24:17.515Z,24.80
2018-08-17T08:26:45.356Z,25.00
2018-08-17T08:29:12.839Z,25.10
2018-08-17T08:31:40.346Z,25.20
2018-08-17T08:34:08.290Z,25.20
2018-08-17T08:36:35.906Z,25.30
2018-08-17T08:39:05.605Z,25.30
2018-08-17T08:41:33.125Z,25.60
2018-08-17T08:44:00.695Z,25.60
2018-08-17T08:46:28.123Z,25.70
2018-08-17T08:48:55.748Z,25.90
2018-08-17T08:51:23.743Z,25.90
2018-08-17T08:53:52.656Z,26.10
2018-08-17T08:56:20.071Z,26.20
2018-08-17T08:58:47.637Z,26.30
2018-08-17T09:01:15.215Z,26.30
2018-08-17T09:03:43.175Z,26.60
2018-08-17T09:06:10.927Z,26.60
2018-08-17T09:08:38.552Z,26.80
2018-08-17T09:11:06.260Z,26.80
2018-08-17T09:13:33.988Z,26.90
2018-08-17T09:16:01.538Z,27.20
2018-08-17T09:18:29.512Z,27.20
2018-08-17T09:20:57.199Z,27.30
2018-08-17T09:23:25.245Z,27.10
2018-08-17T09:25:53.010Z,27.30
2018-08-17T09:28:20.620Z,27.50
2018-08-17T09:30:48.083Z,27.70
2018-08-17T09:33:15.715Z,27.80
2018-08-17T09:35:43.483Z,27.90
2018-08-17T09:38:10.915Z,28.00
2018-08-17T09:40:38.491Z,28.00
2018-08-17T09:43:06.010Z,28.10
2018-08-17T09:45:34.056Z,28.20
2018-08-17T09:48:01.559Z,28.30
2018-08-17T09:50:29.073Z,28.60
2018-08-17T09:52:56.544Z,28.70
2018-08-17T09:55:24.009Z,28.90
2018-08-17T09:57:51.455Z,28.90
2018-08-17T10:00:18.997Z,29.20
2018-08-17T10:02:52.758Z,29.40
2018-08-17T10:05:26.287Z,29.50
2018-08-17T10:07:59.462Z,29.50
2018-08-17T10:10:27.320Z,29.40
2018-08-17T10:12:55.051Z,29.40
2018-08-17T10:15:23.646Z,29.30
2018-08-17T10:17:51.539Z,29.60
2018-08-17T10:20:23.189Z,29.60
2018-08-17T10:22:50.952Z,30.00
2018-08-17T10:25:20.036Z,30.10
2018-08-17T10:27:49.943Z,30.40
2018-08-17T10:30:18.720Z,30.50
2018-08-17T10:32:51.271Z,30.50
2018-08-17T10:35:22.725Z,30.60
2018-08-17T10:37:57.080Z,30.70
2018-08-17T10:40:24.950Z,31.00
2018-08-17T10:42:53.411Z,31.10
2018-08-17T10:45:22.483Z,31.20
2018-08-17T10:47:50.708Z,31.20
2018-08-17T10:50:19.611Z,31.40
2018-08-17T10:52:49.426Z,31.70
2018-08-17T10:55:17.046Z,31.80
2018-08-17T10:57:45.003Z,32.00
2018-08-17T11:00:15.765Z,32.20
2018-08-17T11:02:43.878Z,32.10
2018-08-17T11:05:12.387Z,32.40
2018-08-17T11:07:41.444Z,32.40
2018-08-17T11:10:10.183Z,32.50
2018-08-17T11:12:38.844Z,32.50
2018-08-17T11:15:06.515Z,32.70
2018-08-17T11:17:35.017Z,32.70
2018-08-17T11:20:02.623Z,32.80
2018-08-17T11:22:30.530Z,32.90
2018-08-17T11:24:59.643Z,33.00
2018-08-17T11:27:27.243Z,33.00
2018-08-17T11:29:54.922Z,33.10
2018-08-17T11:32:22.492Z,33.30
2018-08-17T11:34:52.612Z,33.30
2018-08-17T11:37:21.441Z,33.50
2018-08-17T11:39:54.662Z,33.70
2018-08-17T11:42:24.775Z,34.10
2018-08-17T11:44:52.218Z,34.90
2018-08-17T11:47:20.068Z,35.80
2018-08-17T11:49:47.536Z,36.60
2018-08-17T11:52:15.007Z,37.70
2018-08-17T11:54:44.364Z,39.10
2018-08-17T11:57:11.874Z,40.40
2018-08-17T11:59:44.215Z,41.00
2018-08-17T12:02:12.429Z,41.40
2018-08-17T12:04:41.338Z,42.30
2018-08-17T12:07:08.957Z,41.70
2018-08-17T12:09:36.530Z,42.10
2018-08-17T12:12:04.010Z,43.10
2018-08-17T12:14:31.611Z,42.80
2018-08-17T12:16:59.115Z,42.40
2018-08-17T12:19:26.555Z,41.90
2018-08-17T12:21:54.103Z,41.60
2018-08-17T12:24:21.728Z,41.30
2018-08-17T12:26:53.153Z,40.90
2018-08-17T12:29:21.064Z,40.20
2018-08-17T12:31:48.930Z,39.80
2018-08-17T12:34:16.819Z,39.40
2018-08-17T12:36:44.480Z,39.30
2018-08-17T12:39:12.010Z,38.70
2018-08-17T12:41:39.820Z,38.70
2018-08-17T12:44:07.384Z,38.70
2018-08-17T12:46:34.978Z,38.20
2018-08-17T12:49:02.504Z,38.20
2018-08-17T12:51:29.984Z,38.30
2018-08-17T12:53:57.554Z,38.80
2018-08-17T12:56:25.179Z,39.30
2018-08-17T12:58:52.712Z,39.70
2018-08-17T13:01:20.378Z,40.40
2018-08-17T13:03:47.832Z,40.50
2018-08-17T13:06:15.487Z,40.70
2018-08-17T13:08:42.953Z,40.90
2018-08-17T13:11:10.507Z,40.90
2018-08-17T13:13:38.108Z,40.80
2018-08-17T13:16:07.085Z,40.50
2018-08-17T13:18:36.302Z,40.20
2018-08-17T13:21:03.868Z,39.80
2018-08-17T13:23:31.722Z,39.90
2018-08-17T13:25:59.275Z,39.70
2018-08-17T13:28:27.194Z,39.80
2018-08-17T13:30:55.058Z,39.30
2018-08-17T13:33:22.830Z,38.80
2018-08-17T13:35:51.300Z,37.80
2018-08-17T13:38:19.110Z,36.70
2018-08-17T13:40:46.655Z,36.50
2018-08-17T13:43:14.422Z,36.50
2018-08-17T13:45:42.701Z,36.70
2018-08-17T13:48:11.382Z,36.90
2018-08-17T13:50:40.871Z,37.00
2018-08-17T13:53:08.837Z,36.70
2018-08-17T13:55:37.008Z,37.10
2018-08-17T13:58:06.125Z,36.90
2018-08-17T14:00:34.916Z,36.80
2018-08-17T14:03:04.450Z,36.40
2018-08-17T14:05:33.205Z,35.40
2018-08-17T14:08:00.928Z,34.90
2018-08-17T14:10:29.562Z,34.90
2018-08-17T14:12:58.239Z,34.50
2018-08-17T14:15:26.252Z,34.20
2018-08-17T14:17:57.042Z,33.90
2018-08-17T14:20:25.398Z,33.60
2018-08-17T14:22:55.779Z,34.50
2018-08-17T14:25:24.367Z,35.60
2018-08-17T14:27:53.651Z,36.60
2018-08-17T14:30:21.766Z,37.20
2018-08-17T14:32:49.955Z,36.70
2018-08-17T14:35:18.189Z,36.00
2018-08-17T14:37:46.232Z,35.60
2018-08-17T14:40:16.554Z,35.50
2018-08-17T14:42:44.696Z,35.70
2018-08-17T14:45:13.989Z,35.70
2018-08-17T14:47:42.147Z,35.10
2018-08-17T14:50:12.006Z,33.90
2018-08-17T14:52:46.069Z,32.80
2018-08-17T14:55:13.780Z,32.00
2018-08-17T14:57:57.631Z,31.30
2018-08-17T15:09:00.801Z,30.70
2018-08-17T15:11:29.731Z,30.40
2018-08-17T15:14:01.692Z,30.30
2018-08-17T15:16:29.887Z,30.20
2018-08-17T15:18:57.385Z,30.00
2018-08-17T15:21:27.040Z,29.90
2018-08-17T15:23:54.676Z,29.90
2018-08-17T15:26:22.269Z,29.90
2018-08-17T15:28:49.799Z,29.80
2018-08-17T15:31:19.234Z,29.70
2018-08-17T15:33:47.276Z,29.60
2018-08-17T15:36:14.755Z,29.60
2018-08-17T15:38:42.251Z,29.40
2018-08-17T15:41:09.923Z,29.30
2018-08-17T15:43:37.394Z,29.20
2018-08-17T15:46:05.006Z,29.40
2018-08-17T15:48:38.952Z,29.20
2018-08-17T15:51:09.527Z,29.10
2018-08-17T15:53:37.003Z,29.10
2018-08-17T15:56:04.449Z,29.10
2018-08-17T15:58:31.918Z,29.00
2018-08-17T16:00:59.722Z,28.90
2018-08-17T16:03:27.172Z,28.80
2018-08-17T16:05:54.707Z,28.70
2018-08-17T16:08:22.249Z,28.80
2018-08-17T16:10:49.780Z,28.60
2018-08-17T16:13:17.286Z,28.30
2018-08-17T16:15:44.712Z,28.30
2018-08-17T16:18:12.203Z,28.10
2018-08-17T16:20:39.737Z,28.10
2018-08-17T16:23:07.232Z,28.00
2018-08-17T16:25:34.724Z,27.80
2018-08-17T16:28:02.255Z,27.70
2018-08-17T16:30:29.714Z,27.60
2018-08-17T16:32:57.196Z,27.50
2018-08-17T16:35:24.723Z,27.50
2018-08-17T16:37:52.234Z,27.50
2018-08-17T16:40:20.782Z,27.50
2018-08-17T16:42:49.754Z,27.40
2018-08-17T16:45:17.371Z,27.50
2018-08-17T16:47:44.894Z,27.40
2018-08-17T16:50:13.490Z,27.40
2018-08-17T16:52:40.987Z,27.20
2018-08-17T16:55:08.469Z,27.30
2018-08-17T16:57:36.498Z,27.30
2018-08-17T17:00:05.519Z,27.10
2018-08-17T17:02:33.132Z,27.20
2018-08-17T17:05:00.735Z,26.90
2018-08-17T17:07:30.313Z,27.10
2018-08-17T17:09:58.449Z,26.90
2018-08-17T17:12:26.127Z,26.70
2018-08-17T17:14:58.347Z,26.80
2018-08-17T17:17:26.032Z,26.60
2018-08-17T17:19:53.699Z,26.70
2018-08-17T17:22:23.108Z,26.40
2018-08-17T17:24:50.684Z,26.50
2018-08-17T17:27:18.930Z,26.40
2018-08-17T17:29:46.576Z,26.30
2018-08-17T17:32:14.111Z,26.20
2018-08-17T17:34:41.819Z,26.30
2018-08-17T17:37:09.504Z,26.10
2018-08-17T17:39:37.062Z,26.10
2018-08-17T17:42:04.728Z,26.10
2018-08-17T17:44:32.417Z,25.90
2018-08-17T17:47:01.107Z,25.70
2018-08-17T17:49:28.668Z,25.70
2018-08-17T17:51:56.236Z,25.80
2018-08-17T17:54:25.017Z,25.60
2018-08-17T17:56:58.331Z,25.60
2018-08-17T17:59:25.899Z,25.50
2018-08-17T18:01:53.596Z,25.30
2018-08-17T18:04:21.144Z,25.30
2018-08-17T18:06:48.724Z,25.20
2018-08-17T18:09:16.305Z,25.20
2018-08-17T18:11:43.767Z,25.20
2018-08-17T18:14:11.378Z,25.40
2018-08-17T18:16:38.887Z,25.30
2018-08-17T18:19:07.555Z,25.50
2018-08-17T18:21:35.898Z,25.40
2018-08-17T18:24:09.536Z,25.30
2018-08-17T18:26:37.101Z,25.30
2018-08-17T18:29:04.907Z,25.20
2018-08-17T18:31:32.571Z,25.20
2018-08-17T18:34:00.043Z,25.00
2018-08-17T18:36:27.512Z,25.20
2018-08-17T18:38:55.029Z,25.00
2018-08-17T18:41:22.632Z,25.00
2018-08-17T18:43:50.151Z,24.80
2018-08-17T18:46:18.092Z,24.80
2018-08-17T18:48:45.836Z,24.60
2018-08-17T18:51:13.355Z,24.60
2018-08-17T18:53:41.091Z,24.60
2018-08-17T18:56:08.580Z,24.50
2018-08-17T18:58:36.123Z,24.40
2018-08-17T19:01:03.698Z,24.30
2018-08-17T19:03:31.485Z,24.30
2018-08-17T19:05:59.012Z,24.30
2018-08-17T19:08:26.543Z,24.30
2018-08-17T19:10:54.074Z,24.20
2018-08-17T19:13:21.581Z,24.10
2018-08-17T19:15:53.224Z,24.00
2018-08-17T19:18:21.127Z,24.00
2018-08-17T19:20:48.604Z,24.10
2018-08-17T19:23:16.083Z,24.00
2018-08-17T19:25:43.585Z,24.10
2018-08-17T19:28:11.157Z,24.00
2018-08-17T19:30:38.685Z,24.00
2018-08-17T19:33:07.808Z,23.70
2018-08-17T19:35:35.247Z,23.80
2018-08-17T19:38:02.843Z,23.80
2018-08-17T19:40:30.336Z,23.90
2018-08-17T19:42:57.991Z,23.80
2018-08-17T19:45:25.481Z,23.80
2018-08-17T19:47:52.947Z,23.70
2018-08-17T19:50:20.444Z,23.70
2018-08-17T19:52:48.034Z,23.70
2018-08-17T19:55:16.594Z,23.70
2018-08-17T19:57:46.140Z,23.70
2018-08-17T20:00:13.821Z,23.70
2018-08-17T20:02:41.708Z,23.70
2018-08-17T20:05:11.837Z,23.40
2018-08-17T20:07:39.629Z,23.60
2018-08-17T20:10:08.604Z,23.70
2018-08-17T20:12:36.060Z,23.60
2018-08-17T20:15:04.937Z,23.70
2018-08-17T20:17:32.405Z,23.50
2018-08-17T20:19:59.891Z,23.60
2018-08-17T20:22:27.451Z,23.60
2018-08-17T20:24:54.914Z,23.50
2018-08-17T20:27:22.433Z,23.50
2018-08-17T20:29:49.911Z,23.50
2018-08-17T20:32:18.480Z,23.40
2018-08-17T20:34:47.851Z,23.50
2018-08-17T20:37:16.148Z,23.30
2018-08-17T20:39:44.687Z,23.40
2018-08-17T20:42:13.348Z,23.30
2018-08-17T20:44:41.439Z,23.20
2018-08-17T20:47:09.952Z,23.30
2018-08-17T20:49:37.775Z,23.20
2018-08-17T20:52:05.396Z,23.20
2018-08-17T20:54:33.083Z,23.20
2018-08-17T20:57:01.451Z,23.20
2018-08-17T20:59:29.244Z,23.10
2018-08-17T21:01:57.236Z,23.10
2018-08-17T21:04:24.789Z,23.10
2018-08-17T21:06:52.303Z,23.10
2018-08-17T21:09:22.803Z,23.10
2018-08-17T21:11:50.557Z,23.10
2018-08-17T21:14:18.219Z,23.10
2018-08-17T21:16:45.751Z,23.20
2018-08-17T21:19:13.338Z,23.20
2018-08-17T21:21:41.014Z,23.10
2018-08-17T21:24:08.531Z,23.00
2018-08-17T21:26:35.997Z,23.10
2018-08-17T21:29:04.180Z,23.10
2018-08-17T21:31:31.788Z,23.00
2018-08-17T21:33:59.348Z,23.00
2018-08-17T21:36:26.969Z,23.00
2018-08-17T21:39:09.713Z,23.00
2018-08-17T21:41:38.493Z,23.00
2018-08-17T21:44:07.172Z,23.00
2018-08-17T21:46:35.808Z,23.00
2018-08-17T21:49:03.392Z,22.90
2018-08-17T21:51:33.032Z,22.90
2018-08-17T21:54:01.043Z,22.80
2018-08-17T21:56:28.567Z,22.80
2018-08-17T21:58:56.042Z,22.70
2018-08-17T22:01:23.563Z,22.80
2018-08-17T22:03:51.477Z,22.70
2018-08-17T22:06:19.036Z,22.70
2018-08-17T22:08:46.555Z,22.70
2018-08-17T22:11:23.515Z,22.70
2018-08-17T22:13:51.054Z,22.60
2018-08-17T22:16:18.623Z,22.60
2018-08-17T22:18:46.232Z,22.70
2018-08-17T22:21:13.706Z,22.70
2018-08-17T22:23:41.224Z,22.60
2018-08-17T22:26:08.779Z,22.70
2018-08-17T22:28:36.278Z,22.60
2018-08-17T22:31:04.431Z,22.60
2018-08-17T22:33:31.985Z,22.60
2018-08-17T22:36:00.138Z,22.70
2018-08-17T22:38:31.433Z,22.60
2018-08-17T22:40:58.990Z,22.60
2018-08-17T22:43:26.750Z,22.50
2018-08-17T22:45:54.372Z,22.50
2018-08-17T22:48:22.282Z,22.50
2018-08-17T22:50:49.670Z,22.50
2018-08-17T22:53:17.355Z,22.60
2018-08-17T22:55:45.123Z,22.50
2018-08-17T22:58:12.753Z,22.30
2018-08-17T23:00:40.596Z,22.50
2018-08-17T23:03:08.290Z,22.30
2018-08-17T23:05:36.100Z,22.40
2018-08-17T23:08:03.891Z,22.30
2018-08-17T23:10:31.626Z,22.30
2018-08-17T23:12:59.221Z,22.30
2018-08-17T23:15:26.879Z,22.20
2018-08-17T23:17:58.667Z,22.20
2018-08-17T23:20:31.917Z,22.10
2018-08-17T23:23:00.598Z,22.20
2018-08-17T23:25:28.410Z,22.10
2018-08-17T23:27:55.970Z,22.10
2018-08-17T23:30:25.190Z,22.10
2018-08-17T23:32:53.110Z,22.10
2018-08-17T23:35:20.905Z,22.00
2018-08-17T23:37:48.658Z,22.00
2018-08-17T23:40:16.288Z,22.00
2018-08-17T23:42:44.049Z,22.10
2018-08-17T23:45:13.739Z,22.10
2018-08-17T23:47:41.279Z,22.00
2018-08-17T23:50:10.286Z,21.90
2018-08-17T23:52:37.990Z,21.90
2018-08-17T23:55:06.246Z,21.90
2018-08-17T23:57:34.703Z,21.90
